Time;durP1;ratioP1;P1;durP2;ratioP2;P2;SDS_P1;SDS_P2;PMS_P1;PMS_P2;Temp;Humidity;BMP_temperature;BMP_pressure;BME280_temperature;BME280_humidity;BME280_pressure;Samples;Min_cycle;Max_cycle;Signal;HPM_P1;HPM_P2
2023/10/22 00:00:07;;;;;;;14.77;1.30;;;;;;;;;;5004200;28;20827;-79
2023/10/22 00:02:40;;;;;;;15.10;1.60;;;;;;;;;;5000383;28;20416;-81
2023/10/22 00:05:08;;;;;;;15.50;1.40;;;;;;;;;;5007861;28;20420;-80
2023/10/22 00:07:35;;;;;;;15.70;1.73;;;;;;;;;;5004706;28;20424;-80
2023/10/22 00:10:02;;;;;;;16.90;1.60;;;;;;;;;;4999005;28;20971;-79
2023/10/22 00:12:28;;;;;;;17.60;1.40;;;;;;;;;;5003257;28;20405;-80
2023/10/22 00:14:55;;;;;;;15.93;1.25;;;;;;;;;;5020581;28;20420;-81
2023/10/22 00:17:22;;;;;;;16.42;1.50;;;;;;;;;;5021318;28;20434;-77
2023/10/22 00:19:50;;;;;;;18.00;1.60;;;;;;;;;;4992098;28;20412;-80
2023/10/22 00:22:18;;;;;;;14.40;1.40;;;;;;;;;;5003482;28;20476;-75
2023/10/22 00:24:45;;;;;;;17.10;1.60;;;;;;;;;;4999423;28;20404;-79
2023/10/22 00:27:11;;;;;;;15.50;1.43;;;;;;;;;;5002020;28;20488;-78
2023/10/22 00:29:38;;;;;;;16.70;1.40;;;;;;;;;;5006344;28;20435;-79
2023/10/22 00:32:05;;;;;;;18.13;1.70;;;;;;;;;;5001684;28;20421;-78
2023/10/22 00:34:32;;;;;;;15.80;1.90;;;;;;;;;;5014186;28;20864;-77
2023/10/22 00:37:01;;;;;;;16.00;1.55;;;;;;;;;;4997523;28;20408;-79
2023/10/22 00:39:28;;;;;;;15.70;1.50;;;;;;;;;;5003509;28;20508;-79
2023/10/22 00:41:55;;;;;;;15.73;1.45;;;;;;;;;;5012218;28;21038;-78
2023/10/22 00:44:23;;;;;;;15.90;1.60;;;;;;;;;;5006602;28;21011;-79
2023/10/22 00:46:50;;;;;;;15.18;1.50;;;;;;;;;;5021372;28;20451;-80
2023/10/22 00:49:17;;;;;;;14.25;1.20;;;;;;;;;;4995587;28;20467;-79
2023/10/22 00:51:45;;;;;;;16.00;1.30;;;;;;;;;;5002652;28;20474;-77
2023/10/22 00:54:14;;;;;;;17.00;1.30;;;;;;;;;;5004197;28;20413;-78
2023/10/22 00:56:41;;;;;;;15.50;1.30;;;;;;;;;;5020611;28;20432;-78
2023/10/22 00:59:09;;;;;;;16.65;1.50;;;;;;;;;;5010001;28;20515;-80
2023/10/22 01:01:36;;;;;;;17.65;1.60;;;;;;;;;;4997940;28;20409;-79
2023/10/22 01:04:03;;;;;;;14.38;1.45;;;;;;;;;;4992411;28;20413;-78
2023/10/22 01:06:30;;;;;;;15.23;1.30;;;;;;;;;;5007097;28;20435;-79
2023/10/22 01:08:58;;;;;;;16.15;1.50;;;;;;;;;;5010948;28;20405;-79
2023/10/22 01:11:27;;;;;;;15.82;1.30;;;;;;;;;;5019992;28;20420;-80
2023/10/22 01:13:54;;;;;;;17.10;1.30;;;;;;;;;;5013229;28;20408;-80
2023/10/22 01:16:21;;;;;;;19.25;2.10;;;;;;;;;;5003176;28;20417;-79
2023/10/22 01:19:00;;;;;;;14.50;1.58;;;;;;;;;;5002753;28;20497;-77
2023/10/22 01:21:31;;;;;;;16.60;1.20;;;;;;;;;;5025293;28;20400;-78
2023/10/22 01:23:59;;;;;;;15.30;1.63;;;;;;;;;;5006136;28;20425;-82
2023/10/22 01:26:26;;;;;;;15.45;1.30;;;;;;;;;;5021562;28;20572;-80
2023/10/22 01:28:54;;;;;;;15.20;1.50;;;;;;;;;;4988461;28;20421;-78
2023/10/22 01:31:20;;;;;;;14.73;1.40;;;;;;;;;;5006419;28;20447;-77
2023/10/22 01:33:48;;;;;;;17.50;1.60;;;;;;;;;;4987152;28;20439;-80
2023/10/22 01:36:14;;;;;;;15.52;1.60;;;;;;;;;;4989549;28;20420;-79
2023/10/22 01:38:41;;;;;;;16.15;1.40;;;;;;;;;;5018390;28;20412;-82
2023/10/22 01:41:09;;;;;;;16.10;1.20;;;;;;;;;;5017690;28;20480;-81
2023/10/22 01:43:36;;;;;;;16.80;1.50;;;;;;;;;;4992359;28;20496;-81
2023/10/22 01:46:04;;;;;;;16.60;1.50;;;;;;;;;;5012308;28;20521;-77
2023/10/22 01:48:33;;;;;;;15.30;1.35;;;;;;;;;;5001313;28;20413;-77
2023/10/22 01:51:01;;;;;;;15.50;1.30;;;;;;;;;;5006396;28;20416;-80
2023/10/22 01:53:27;;;;;;;14.63;1.33;;;;;;;;;;5020148;28;20419;-81
2023/10/22 01:55:57;;;;;;;15.68;1.80;;;;;;;;;;5002769;28;20486;-79
2023/10/22 01:58:25;;;;;;;14.53;1.47;;;;;;;;;;4999968;28;20425;-81
2023/10/22 02:01:00;;;;;;;14.20;1.20;;;;;;;;;;5002164;28;20486;-81
2023/10/22 02:03:27;;;;;;;14.52;1.30;;;;;;;;;;4983606;28;20466;-80
2023/10/22 02:05:54;;;;;;;14.50;1.40;;;;;;;;;;5001202;28;20414;-81
2023/10/22 02:08:21;;;;;;;14.93;1.30;;;;;;;;;;4996905;28;20411;-82
2023/10/22 02:10:49;;;;;;;16.60;1.30;;;;;;;;;;5000179;28;20449;-80
2023/10/22 02:13:17;;;;;;;15.32;1.35;;;;;;;;;;4981759;28;20417;-79
2023/10/22 02:15:47;;;;;;;15.00;1.40;;;;;;;;;;5001637;28;20959;-81
2023/10/22 02:18:13;;;;;;;17.45;1.40;;;;;;;;;;5011997;28;20832;-82
2023/10/22 02:20:40;;;;;;;14.15;1.10;;;;;;;;;;5001762;28;20774;-82
2023/10/22 02:23:07;;;;;;;14.38;1.35;;;;;;;;;;4997303;28;20554;-80
2023/10/22 02:25:33;;;;;;;14.40;1.30;;;;;;;;;;5016246;28;20413;-79
2023/10/22 02:28:00;;;;;;;14.13;1.00;;;;;;;;;;5000098;28;20396;-81
2023/10/22 02:30:27;;;;;;;14.93;1.40;;;;;;;;;;5014795;28;20409;-81
2023/10/22 02:32:56;;;;;;;15.60;1.40;;;;;;;;;;5014334;28;20419;-81
2023/10/22 02:35:23;;;;;;;15.80;1.70;;;;;;;;;;5015026;28;20501;-80
2023/10/22 02:37:50;;;;;;;14.65;1.40;;;;;;;;;;4997691;28;20467;-81
2023/10/22 02:40:17;;;;;;;16.90;1.20;;;;;;;;;;4997454;28;20507;-81
2023/10/22 02:42:44;;;;;;;14.15;1.10;;;;;;;;;;4998084;28;21024;-80
2023/10/22 02:45:10;;;;;;;16.17;1.30;;;;;;;;;;4978687;28;20848;-82
2023/10/22 02:47:37;;;;;;;15.43;1.50;;;;;;;;;;5008764;28;20427;-82
2023/10/22 02:50:06;;;;;;;15.63;1.40;;;;;;;;;;4999032;28;20433;-80
2023/10/22 02:52:34;;;;;;;14.53;1.37;;;;;;;;;;4995333;28;20416;-81
2023/10/22 02:55:01;;;;;;;15.50;1.50;;;;;;;;;;5000350;28;20435;-81
2023/10/22 02:57:28;;;;;;;16.92;1.65;;;;;;;;;;4996859;28;20443;-79
2023/10/22 02:59:55;;;;;;;15.98;1.17;;;;;;;;;;5006947;28;20427;-81
2023/10/22 03:02:22;;;;;;;15.20;1.20;;;;;;;;;;4999348;28;20421;-80
2023/10/22 03:04:49;;;;;;;16.77;1.63;;;;;;;;;;5016280;28;20389;-81
2023/10/22 03:07:17;;;;;;;15.10;1.13;;;;;;;;;;4996674;28;20423;-81
2023/10/22 03:09:44;;;;;;;15.93;1.30;;;;;;;;;;5011349;28;20761;-81
2023/10/22 03:12:11;;;;;;;15.43;1.20;;;;;;;;;;5017059;28;20455;-82
2023/10/22 03:14:40;;;;;;;14.20;1.10;;;;;;;;;;5000219;28;20428;-80
2023/10/22 03:17:07;;;;;;;15.13;1.00;;;;;;;;;;5000578;28;20421;-81
2023/10/22 03:19:33;;;;;;;14.50;1.10;;;;;;;;;;4996940;28;20419;-81
2023/10/22 03:22:00;;;;;;;15.27;1.10;;;;;;;;;;5010973;28;20447;-80
2023/10/22 03:24:28;;;;;;;14.00;1.03;;;;;;;;;;4993435;28;20987;-77
2023/10/22 03:26:55;;;;;;;14.15;1.10;;;;;;;;;;4994054;28;20476;-81
2023/10/22 03:29:22;;;;;;;14.20;1.07;;;;;;;;;;5001725;28;20424;-81
2023/10/22 03:31:48;;;;;;;14.47;1.00;;;;;;;;;;4991798;28;20408;-81
2023/10/22 03:34:15;;;;;;;13.80;0.90;;;;;;;;;;4978634;28;20495;-79
2023/10/22 03:36:41;;;;;;;13.75;0.93;;;;;;;;;;5001843;28;20897;-80
2023/10/22 03:39:08;;;;;;;13.90;1.00;;;;;;;;;;5000039;28;20473;-79
2023/10/22 03:41:36;;;;;;;14.50;1.30;;;;;;;;;;5006060;28;20418;-80
2023/10/22 03:44:04;;;;;;;15.00;1.13;;;;;;;;;;5010331;28;20471;-79
2023/10/22 03:46:31;;;;;;;14.50;1.10;;;;;;;;;;5004340;28;20417;-81
2023/10/22 03:48:58;;;;;;;14.05;1.10;;;;;;;;;;5007612;28;20409;-81
2023/10/22 03:51:25;;;;;;;13.70;1.00;;;;;;;;;;4999043;28;20742;-81
2023/10/22 03:53:53;;;;;;;14.25;1.00;;;;;;;;;;4999643;28;20412;-80
2023/10/22 03:56:20;;;;;;;13.70;0.90;;;;;;;;;;4998513;28;20432;-82
2023/10/22 03:58:49;;;;;;;13.80;1.00;;;;;;;;;;5018418;28;20518;-80
2023/10/22 04:01:15;;;;;;;14.73;0.90;;;;;;;;;;4998033;28;20432;-84
2023/10/22 04:03:43;;;;;;;13.80;1.00;;;;;;;;;;5017630;28;20415;-78
2023/10/22 04:06:10;;;;;;;14.20;1.00;;;;;;;;;;4998974;28;20416;-80
2023/10/22 04:08:36;;;;;;;14.20;1.00;;;;;;;;;;5011929;28;21262;-81
2023/10/22 04:11:04;;;;;;;13.70;0.90;;;;;;;;;;4996463;28;20410;-81
2023/10/22 04:13:31;;;;;;;13.90;0.90;;;;;;;;;;5014901;28;20436;-81
2023/10/22 04:15:59;;;;;;;13.77;1.00;;;;;;;;;;4994526;28;20448;-81
2023/10/22 04:18:26;;;;;;;13.77;1.08;;;;;;;;;;4986813;28;20424;-80
2023/10/22 04:20:53;;;;;;;13.90;0.98;;;;;;;;;;5013303;28;20448;-80
2023/10/22 04:23:19;;;;;;;13.73;0.90;;;;;;;;;;5005586;28;20416;-79
2023/10/22 04:25:46;;;;;;;13.70;0.93;;;;;;;;;;5015803;28;20507;-80
2023/10/22 04:28:13;;;;;;;13.90;0.90;;;;;;;;;;5000247;28;20471;-81
2023/10/22 04:30:41;;;;;;;13.60;0.90;;;;;;;;;;5003684;28;20765;-81
2023/10/22 04:33:11;;;;;;;14.07;1.08;;;;;;;;;;5013829;28;20774;-80
2023/10/22 04:35:41;;;;;;;13.80;0.90;;;;;;;;;;5004911;28;20421;-81
2023/10/22 04:38:08;;;;;;;13.70;0.90;;;;;;;;;;5004656;28;20491;-82
2023/10/22 04:40:35;;;;;;;14.35;1.10;;;;;;;;;;5004458;28;20481;-80
2023/10/22 04:43:02;;;;;;;13.70;1.00;;;;;;;;;;5005937;28;20820;-81
2023/10/22 04:45:28;;;;;;;15.40;1.10;;;;;;;;;;5000511;28;20455;-81
2023/10/22 04:47:58;;;;;;;13.63;0.90;;;;;;;;;;4996518;28;20504;-80
2023/10/22 04:50:26;;;;;;;13.98;1.10;;;;;;;;;;4978752;28;20966;-81
2023/10/22 04:52:53;;;;;;;14.00;1.03;;;;;;;;;;4993304;28;20427;-82
2023/10/22 04:55:19;;;;;;;14.70;1.00;;;;;;;;;;5006495;28;20455;-79
2023/10/22 04:57:47;;;;;;;15.70;0.90;;;;;;;;;;5012968;28;20416;-82
2023/10/22 05:00:15;;;;;;;14.00;1.00;;;;;;;;;;5009515;28;20444;-82
2023/10/22 05:02:41;;;;;;;14.15;1.05;;;;;;;;;;4997700;28;20917;-83
2023/10/22 05:05:09;;;;;;;13.60;0.90;;;;;;;;;;4993920;28;20458;-81
2023/10/22 05:07:37;;;;;;;13.85;1.13;;;;;;;;;;5002071;28;20444;-81
2023/10/22 05:10:04;;;;;;;13.98;0.80;;;;;;;;;;5012126;28;20414;-81
2023/10/22 05:12:31;;;;;;;13.60;0.90;;;;;;;;;;5013411;28;20420;-83
2023/10/22 05:14:58;;;;;;;14.40;0.80;;;;;;;;;;5012192;28;20463;-82
2023/10/22 05:17:24;;;;;;;13.70;0.90;;;;;;;;;;5005375;28;20527;-81
2023/10/22 05:19:51;;;;;;;13.60;0.90;;;;;;;;;;5011310;28;20407;-81
2023/10/22 05:22:19;;;;;;;13.90;0.90;;;;;;;;;;4986913;28;20528;-80
2023/10/22 05:24:48;;;;;;;13.65;0.85;;;;;;;;;;4997090;28;20499;-80
2023/10/22 05:27:16;;;;;;;14.80;1.00;;;;;;;;;;5018111;28;20965;-80
2023/10/22 05:29:43;;;;;;;14.70;1.00;;;;;;;;;;4993596;28;20425;-81
2023/10/22 05:32:10;;;;;;;14.20;1.00;;;;;;;;;;4997696;28;20474;-83
2023/10/22 05:34:37;;;;;;;14.30;1.00;;;;;;;;;;4999924;28;20503;-81
2023/10/22 05:37:04;;;;;;;14.65;1.27;;;;;;;;;;4999022;28;20781;-79
2023/10/22 05:39:31;;;;;;;13.93;0.90;;;;;;;;;;4996862;28;20422;-81
2023/10/22 05:41:59;;;;;;;13.90;0.90;;;;;;;;;;5013475;28;20415;-81
2023/10/22 05:44:25;;;;;;;15.80;1.13;;;;;;;;;;5003409;28;20420;-80
2023/10/22 05:46:52;;;;;;;13.70;0.90;;;;;;;;;;5012765;28;20417;-82
2023/10/22 05:49:20;;;;;;;14.77;1.00;;;;;;;;;;4996832;28;20449;-84
2023/10/22 05:51:47;;;;;;;14.70;1.00;;;;;;;;;;4998578;28;20432;-81
2023/10/22 05:54:14;;;;;;;14.00;1.20;;;;;;;;;;4988776;28;20815;-82
2023/10/22 05:56:40;;;;;;;14.68;1.00;;;;;;;;;;4999798;28;20424;-81
2023/10/22 05:59:09;;;;;;;13.80;1.00;;;;;;;;;;4992796;28;20424;-82
2023/10/22 06:01:38;;;;;;;14.30;1.00;;;;;;;;;;5010953;28;20405;-82
2023/10/22 06:04:06;;;;;;;15.00;1.35;;;;;;;;;;4995260;28;20475;-80
2023/10/22 06:06:32;;;;;;;13.73;0.90;;;;;;;;;;4997436;28;21054;-80
2023/10/22 06:08:59;;;;;;;13.80;0.90;;;;;;;;;;4998942;28;20499;-82
2023/10/22 06:11:26;;;;;;;13.70;0.90;;;;;;;;;;5025249;28;20423;-80
2023/10/22 06:13:52;;;;;;;14.05;1.00;;;;;;;;;;5014030;28;20421;-79
2023/10/22 06:16:20;;;;;;;13.70;0.80;;;;;;;;;;5013381;28;20444;-78
2023/10/22 06:18:47;;;;;;;14.20;1.00;;;;;;;;;;5029721;28;20401;-80
2023/10/22 06:21:17;;;;;;;13.80;0.90;;;;;;;;;;5017341;28;20507;-79
2023/10/22 06:23:43;;;;;;;14.00;1.10;;;;;;;;;;5019605;28;20424;-79
2023/10/22 06:26:11;;;;;;;14.60;1.00;;;;;;;;;;4999576;28;20733;-77
2023/10/22 06:28:38;;;;;;;14.07;1.13;;;;;;;;;;5032009;28;20404;-79
2023/10/22 06:31:05;;;;;;;14.10;1.00;;;;;;;;;;5020649;28;20476;-79
2023/10/22 06:33:34;;;;;;;14.23;1.00;;;;;;;;;;5009625;28;20412;-79
2023/10/22 06:36:09;;;;;;;15.20;1.00;;;;;;;;;;5029404;28;20417;-78
2023/10/22 06:38:36;;;;;;;15.70;1.20;;;;;;;;;;5011295;28;20423;-79
2023/10/22 06:41:04;;;;;;;13.98;1.05;;;;;;;;;;5013842;28;20432;-79
2023/10/22 06:43:30;;;;;;;14.13;1.20;;;;;;;;;;5014756;28;20751;-79
2023/10/22 06:45:57;;;;;;;16.10;1.20;;;;;;;;;;5013181;28;20408;-79
2023/10/22 06:48:24;;;;;;;14.30;1.40;;;;;;;;;;5030194;28;20424;-80
2023/10/22 06:50:53;;;;;;;15.70;1.83;;;;;;;;;;5017629;28;20891;-80
2023/10/22 06:53:19;;;;;;;17.60;1.30;;;;;;;;;;5011369;28;20456;-79
2023/10/22 06:55:46;;;;;;;14.80;1.10;;;;;;;;;;5011116;28;20417;-80
2023/10/22 06:58:13;;;;;;;14.20;1.02;;;;;;;;;;5019953;28;20440;-79
2023/10/22 07:00:39;;;;;;;14.60;1.10;;;;;;;;;;5004552;28;20440;-78
2023/10/22 07:03:06;;;;;;;14.50;1.20;;;;;;;;;;5029701;28;20493;-79
2023/10/22 07:05:33;;;;;;;14.40;1.25;;;;;;;;;;5019954;28;20487;-79
2023/10/22 07:08:00;;;;;;;14.07;1.20;;;;;;;;;;5021229;28;20448;-79
2023/10/22 07:10:27;;;;;;;14.57;1.20;;;;;;;;;;5003531;28;20448;-79
2023/10/22 07:12:54;;;;;;;16.08;1.58;;;;;;;;;;5015708;28;20485;-80
2023/10/22 07:15:21;;;;;;;14.50;1.40;;;;;;;;;;5028335;28;20408;-80
2023/10/22 07:17:48;;;;;;;14.77;1.30;;;;;;;;;;5023326;28;20408;-80
2023/10/22 07:20:16;;;;;;;14.38;1.20;;;;;;;;;;5019455;28;20434;-81
2023/10/22 07:22:42;;;;;;;15.30;1.40;;;;;;;;;;5028770;28;20389;-79
2023/10/22 07:25:10;;;;;;;15.13;1.10;;;;;;;;;;5039832;28;20472;-79
2023/10/22 07:27:37;;;;;;;14.95;1.10;;;;;;;;;;5016569;28;20468;-81
2023/10/22 07:30:04;;;;;;;15.60;1.40;;;;;;;;;;5031642;28;20846;-79
2023/10/22 07:32:31;;;;;;;14.48;1.10;;;;;;;;;;5035122;28;20442;-79
2023/10/22 07:34:58;;;;;;;14.30;1.10;;;;;;;;;;5015535;28;20412;-81
2023/10/22 07:37:24;;;;;;;15.20;1.10;;;;;;;;;;4995505;28;20421;-80
2023/10/22 07:39:51;;;;;;;14.98;1.15;;;;;;;;;;5022082;28;20479;-81
2023/10/22 07:42:19;;;;;;;16.20;1.20;;;;;;;;;;5003127;28;20436;-80
2023/10/22 07:44:49;;;;;;;15.40;1.70;;;;;;;;;;5017965;28;20414;-81
2023/10/22 07:47:16;;;;;;;14.70;1.30;;;;;;;;;;5014718;28;20423;-80
2023/10/22 07:49:43;;;;;;;14.40;1.20;;;;;;;;;;5028009;28;20444;-81
2023/10/22 07:52:10;;;;;;;15.50;1.20;;;;;;;;;;5021448;28;20432;-81
2023/10/22 07:54:36;;;;;;;14.00;1.20;;;;;;;;;;5012649;28;20743;-83
2023/10/22 07:57:05;;;;;;;14.50;1.17;;;;;;;;;;5005040;28;20432;-81
2023/10/22 07:59:33;;;;;;;15.50;1.50;;;;;;;;;;5016074;28;20435;-83
2023/10/22 08:02:00;;;;;;;14.40;1.30;;;;;;;;;;5018892;28;20940;-83
2023/10/22 08:04:26;;;;;;;14.20;1.20;;;;;;;;;;5010348;28;20980;-88
2023/10/22 08:06:53;;;;;;;15.60;1.40;;;;;;;;;;5011217;28;20446;-86
2023/10/22 08:09:19;;;;;;;15.05;1.63;;;;;;;;;;5025341;28;20423;-88
2023/10/22 08:11:46;;;;;;;16.83;1.60;;;;;;;;;;4999222;28;20416;-89
2023/10/22 08:14:13;;;;;;;14.40;1.33;;;;;;;;;;5001772;28;20416;-88
2023/10/22 08:16:41;;;;;;;14.90;1.60;;;;;;;;;;5000047;28;20416;-89
2023/10/22 08:19:07;;;;;;;16.33;1.40;;;;;;;;;;5017125;28;20527;-92
2023/10/22 08:21:34;;;;;;;15.00;1.30;;;;;;;;;;5017099;28;20534;-85
2023/10/22 08:24:00;;;;;;;15.15;1.23;;;;;;;;;;5016062;28;20768;-87
2023/10/22 08:26:27;;;;;;;14.52;1.30;;;;;;;;;;4997484;28;20429;-88
2023/10/22 08:28:54;;;;;;;14.10;1.20;;;;;;;;;;4980937;28;20897;-87
2023/10/22 08:31:21;;;;;;;14.30;1.33;;;;;;;;;;4996820;28;20430;-87
2023/10/22 08:33:49;;;;;;;14.98;1.60;;;;;;;;;;4996378;28;20409;-91
2023/10/22 08:36:15;;;;;;;16.50;2.20;;;;;;;;;;4991568;28;20463;-89
2023/10/22 08:38:43;;;;;;;14.10;1.10;;;;;;;;;;4994319;28;20993;-88
2023/10/22 08:41:12;;;;;;;14.90;1.60;;;;;;;;;;4995871;28;20515;-90
2023/10/22 08:43:40;;;;;;;15.50;1.40;;;;;;;;;;5012427;28;20408;-90
2023/10/22 08:46:07;;;;;;;16.40;1.40;;;;;;;;;;5000737;28;20425;-89
2023/10/22 08:48:35;;;;;;;14.20;1.30;;;;;;;;;;4996670;28;20475;-78
2023/10/22 08:51:04;;;;;;;15.50;1.40;;;;;;;;;;4995312;28;20954;-79
2023/10/22 08:53:31;;;;;;;14.40;1.20;;;;;;;;;;4994547;28;20423;-79
2023/10/22 08:56:00;;;;;;;16.02;1.58;;;;;;;;;;5001417;28;20412;-84
2023/10/22 08:58:27;;;;;;;14.43;1.27;;;;;;;;;;4996004;28;20419;-85
2023/10/22 09:00:53;;;;;;;14.40;1.20;;;;;;;;;;5009460;28;20414;-84
2023/10/22 09:03:22;;;;;;;15.00;1.50;;;;;;;;;;5011597;28;20420;-84
2023/10/22 09:05:48;;;;;;;14.68;1.50;;;;;;;;;;5011930;28;20904;-85
2023/10/22 09:08:17;;;;;;;18.60;1.30;;;;;;;;;;5000903;28;20561;-85
2023/10/22 09:10:44;;;;;;;14.50;1.20;;;;;;;;;;5004151;28;20409;-85
2023/10/22 09:13:14;;;;;;;14.90;1.20;;;;;;;;;;5013309;28;20528;-85
2023/10/22 09:15:42;;;;;;;14.18;1.13;;;;;;;;;;4994691;28;20428;-86
2023/10/22 09:18:09;;;;;;;15.10;1.20;;;;;;;;;;4990174;28;20416;-84
2023/10/22 09:20:36;;;;;;;14.30;1.27;;;;;;;;;;4998082;28;20428;-83
2023/10/22 09:23:14;;;;;;;14.40;1.30;;;;;;;;;;4994296;28;20416;-84
2023/10/22 09:25:42;;;;;;;14.57;1.20;;;;;;;;;;5013995;28;20405;-84
2023/10/22 09:28:17;;;;;;;13.90;1.08;;;;;;;;;;5014189;28;20423;-84
2023/10/22 09:30:44;;;;;;;14.15;1.27;;;;;;;;;;4999774;28;20813;-85
2023/10/22 09:33:10;;;;;;;14.70;1.40;;;;;;;;;;5012516;28;20412;-85
2023/10/22 09:35:37;;;;;;;14.20;1.10;;;;;;;;;;4994686;28;20919;-84
2023/10/22 09:38:04;;;;;;;15.15;1.35;;;;;;;;;;5011634;28;20420;-84
2023/10/22 09:40:33;;;;;;;14.50;1.20;;;;;;;;;;4982726;28;20777;-83
2023/10/22 09:43:04;;;;;;;15.20;1.45;;;;;;;;;;5000190;28;20437;-84
2023/10/22 09:45:31;;;;;;;14.57;1.30;;;;;;;;;;4996222;28;20450;-84
2023/10/22 09:48:03;;;;;;;14.10;1.17;;;;;;;;;;4996472;28;20433;-84
2023/10/22 09:50:42;;;;;;;14.43;1.40;;;;;;;;;;4994263;28;20405;-83
2023/10/22 09:53:08;;;;;;;14.27;1.17;;;;;;;;;;5010376;28;20432;-82
2023/10/22 09:55:37;;;;;;;14.77;1.30;;;;;;;;;;4999145;28;20511;-83
2023/10/22 09:58:13;;;;;;;14.68;1.50;;;;;;;;;;4993981;28;21168;-83
2023/10/22 10:00:40;;;;;;;16.27;1.55;;;;;;;;;;4993189;28;20954;-83
2023/10/22 10:03:17;;;;;;;14.70;1.50;;;;;;;;;;4993948;28;20432;-84
2023/10/22 10:05:44;;;;;;;14.40;1.40;;;;;;;;;;4989206;28;20420;-82
2023/10/22 10:08:10;;;;;;;14.75;1.60;;;;;;;;;;4994199;28;20436;-83
2023/10/22 10:10:37;;;;;;;15.90;1.40;;;;;;;;;;4994476;28;20504;-83
2023/10/22 10:13:04;;;;;;;14.60;1.40;;;;;;;;;;5011343;28;20409;-84
2023/10/22 10:15:33;;;;;;;16.20;1.40;;;;;;;;;;5009003;28;20419;-83
2023/10/22 10:18:02;;;;;;;14.50;1.30;;;;;;;;;;5011306;28;20415;-83
2023/10/22 10:20:31;;;;;;;16.40;1.50;;;;;;;;;;4999723;28;20419;-84
2023/10/22 10:23:06;;;;;;;14.10;1.20;;;;;;;;;;4992594;28;20949;-83
2023/10/22 10:25:33;;;;;;;14.40;1.30;;;;;;;;;;5010184;28;20417;-83
2023/10/22 10:28:01;;;;;;;14.00;1.13;;;;;;;;;;5012409;28;20405;-83
2023/10/22 10:30:28;;;;;;;14.57;1.17;;;;;;;;;;5011790;28;20405;-84
2023/10/22 10:32:56;;;;;;;16.50;1.50;;;;;;;;;;5009134;28;20431;-83
2023/10/22 10:35:44;;;;;;;14.38;1.35;;;;;;;;;;5008937;28;20516;-84
2023/10/22 10:38:21;;;;;;;15.38;1.52;;;;;;;;;;4994885;28;20467;-84
2023/10/22 10:40:50;;;;;;;14.20;1.40;;;;;;;;;;4985380;28;20904;-84
2023/10/22 10:43:18;;;;;;;14.60;1.20;;;;;;;;;;4997346;28;20436;-84
2023/10/22 10:46:03;;;;;;;14.50;1.20;;;;;;;;;;5010885;28;20409;-85
2023/10/22 10:48:48;;;;;;;14.60;1.70;;;;;;;;;;4982000;28;20464;-83
2023/10/22 10:51:17;;;;;;;19.20;4.63;;;;;;;;;;4983073;28;20414;-83
2023/10/22 10:54:02;;;;;;;14.40;1.50;;;;;;;;;;5008722;28;20809;-83
2023/10/22 10:56:44;;;;;;;15.75;1.73;;;;;;;;;;5009379;28;20419;-84
2023/10/22 10:59:10;;;;;;;16.10;1.92;;;;;;;;;;4990434;28;20411;-84
2023/10/22 11:01:37;;;;;;;16.70;3.55;;;;;;;;;;5001349;28;20521;-83
2023/10/22 11:04:07;;;;;;;15.70;1.80;;;;;;;;;;4993168;28;20419;-83
2023/10/22 11:06:34;;;;;;;15.10;1.30;;;;;;;;;;4991610;28;20532;-83
2023/10/22 11:09:01;;;;;;;15.55;1.73;;;;;;;;;;4991622;28;20420;-83
2023/10/22 11:11:28;;;;;;;16.98;2.60;;;;;;;;;;4992896;28;20856;-84
2023/10/22 11:13:54;;;;;;;17.17;2.35;;;;;;;;;;4993062;28;20420;-84
2023/10/22 11:16:21;;;;;;;17.00;2.95;;;;;;;;;;5010661;28;20416;-83
2023/10/22 11:18:53;;;;;;;14.35;1.38;;;;;;;;;;4992770;28;20766;-84
2023/10/22 11:21:21;;;;;;;14.93;1.90;;;;;;;;;;4992952;28;20424;-86
2023/10/22 11:23:48;;;;;;;15.20;1.40;;;;;;;;;;4993447;28;20952;-84
2023/10/22 11:26:14;;;;;;;14.80;1.50;;;;;;;;;;4990460;28;20421;-84
2023/10/22 11:28:41;;;;;;;14.50;1.33;;;;;;;;;;4994230;28;20444;-84
2023/10/22 11:31:21;;;;;;;13.98;1.25;;;;;;;;;;4991036;28;20448;-84
2023/10/22 11:33:48;;;;;;;15.27;1.60;;;;;;;;;;5012443;28;20809;-84
2023/10/22 11:36:18;;;;;;;15.03;1.40;;;;;;;;;;4992655;28;20984;-84
2023/10/22 11:38:51;;;;;;;15.95;1.40;;;;;;;;;;4977721;28;20420;-84
2023/10/22 11:41:19;;;;;;;15.20;1.40;;;;;;;;;;5008747;28;20429;-83
2023/10/22 11:43:47;;;;;;;16.50;1.40;;;;;;;;;;4993032;28;20476;-83
2023/10/22 11:46:13;;;;;;;14.70;1.50;;;;;;;;;;4997247;28;20422;-84
2023/10/22 11:48:43;;;;;;;15.10;1.33;;;;;;;;;;4994746;28;20432;-84
2023/10/22 11:51:10;;;;;;;17.20;1.35;;;;;;;;;;4993123;28;21057;-84
2023/10/22 11:53:40;;;;;;;14.40;1.30;;;;;;;;;;5011085;28;20781;-84
2023/10/22 11:56:09;;;;;;;14.38;1.23;;;;;;;;;;4992855;28;20774;-83
2023/10/22 11:58:35;;;;;;;14.20;1.20;;;;;;;;;;4996929;28;20420;-84
2023/10/22 12:01:02;;;;;;;15.30;1.50;;;;;;;;;;4995394;28;20501;-82
2023/10/22 12:03:31;;;;;;;14.77;1.30;;;;;;;;;;4995543;28;20872;-82
2023/10/22 12:05:58;;;;;;;15.13;1.42;;;;;;;;;;4996336;28;20420;-82
2023/10/22 12:08:25;;;;;;;14.32;1.30;;;;;;;;;;4995339;28;20424;-82
2023/10/22 12:10:51;;;;;;;14.18;1.20;;;;;;;;;;5013347;28;20478;-82
2023/10/22 12:13:19;;;;;;;14.33;1.20;;;;;;;;;;5010630;28;20612;-82
2023/10/22 12:15:47;;;;;;;15.33;2.27;;;;;;;;;;5014227;28;20423;-82
2023/10/22 12:18:13;;;;;;;14.32;1.38;;;;;;;;;;4997833;28;20533;-82
2023/10/22 12:20:40;;;;;;;16.30;1.40;;;;;;;;;;4995140;28;20431;-82
2023/10/22 12:23:10;;;;;;;14.10;1.33;;;;;;;;;;5002241;28;20991;-82
2023/10/22 12:25:37;;;;;;;14.85;2.03;;;;;;;;;;4995193;28;20413;-82
2023/10/22 12:28:04;;;;;;;14.73;1.80;;;;;;;;;;5013962;28;20943;-82
2023/10/22 12:30:32;;;;;;;15.90;1.60;;;;;;;;;;4996977;28;20404;-80
2023/10/22 12:32:59;;;;;;;14.80;2.13;;;;;;;;;;4982270;28;20405;-82
2023/10/22 12:35:26;;;;;;;15.07;2.30;;;;;;;;;;4996127;28;20487;-82
2023/10/22 12:37:54;;;;;;;16.30;2.00;;;;;;;;;;4979298;28;20505;-81
2023/10/22 12:40:21;;;;;;;15.60;2.20;;;;;;;;;;5008875;28;20912;-80
2023/10/22 12:42:51;;;;;;;16.02;2.55;;;;;;;;;;4994356;28;20417;-79
2023/10/22 12:45:22;;;;;;;16.05;2.80;;;;;;;;;;4985841;28;20452;-81
2023/10/22 12:47:59;;;;;;;17.42;3.55;;;;;;;;;;4992139;28;20417;-80
2023/10/22 12:50:27;;;;;;;17.20;3.00;;;;;;;;;;4992654;28;20938;-81
2023/10/22 12:52:53;;;;;;;16.10;2.40;;;;;;;;;;4994056;28;20452;-80
2023/10/22 12:55:20;;;;;;;16.42;2.90;;;;;;;;;;4994075;28;20429;-79
2023/10/22 12:57:47;;;;;;;15.70;2.55;;;;;;;;;;4993157;28;20947;-82
2023/10/22 13:00:14;;;;;;;16.00;2.60;;;;;;;;;;5012140;28;20996;-80
2023/10/22 13:02:41;;;;;;;16.42;2.80;;;;;;;;;;5011446;28;20452;-80
2023/10/22 13:05:09;;;;;;;18.07;3.10;;;;;;;;;;4998583;28;20767;-80
2023/10/22 13:07:36;;;;;;;19.00;3.80;;;;;;;;;;4993512;28;20416;-81
2023/10/22 13:10:04;;;;;;;17.10;3.80;;;;;;;;;;5011685;28;20896;-79
2023/10/22 13:12:31;;;;;;;18.50;3.88;;;;;;;;;;5008574;28;20943;-80
2023/10/22 13:14:57;;;;;;;18.08;4.00;;;;;;;;;;4977434;28;20902;-81
2023/10/22 13:17:24;;;;;;;16.13;3.22;;;;;;;;;;5011271;28;20423;-80
2023/10/22 13:19:51;;;;;;;17.13;3.80;;;;;;;;;;5014470;28;20451;-81
2023/10/22 13:22:19;;;;;;;17.80;3.95;;;;;;;;;;4994477;28;20943;-79
2023/10/22 13:24:45;;;;;;;19.17;4.70;;;;;;;;;;4991877;28;20457;-80
2023/10/22 13:27:12;;;;;;;17.75;4.22;;;;;;;;;;5012423;28;20440;-80
2023/10/22 13:29:38;;;;;;;17.52;4.20;;;;;;;;;;4996553;28;20423;-80
2023/10/22 13:32:05;;;;;;;18.67;4.60;;;;;;;;;;5012500;28;20497;-80
2023/10/22 13:34:32;;;;;;;19.55;4.60;;;;;;;;;;5012091;28;20463;-81
2023/10/22 13:36:59;;;;;;;17.50;4.40;;;;;;;;;;5012201;28;20423;-79
2023/10/22 13:39:27;;;;;;;17.83;4.60;;;;;;;;;;5013266;28;20415;-79
2023/10/22 13:41:54;;;;;;;16.50;3.90;;;;;;;;;;4998645;28;20435;-80
2023/10/22 13:44:21;;;;;;;18.80;4.40;;;;;;;;;;5000660;28;20911;-80
2023/10/22 13:46:47;;;;;;;19.33;4.20;;;;;;;;;;4996705;28;20420;-80
2023/10/22 13:49:14;;;;;;;17.25;4.15;;;;;;;;;;5015023;28;20480;-79
2023/10/22 13:51:41;;;;;;;19.60;3.90;;;;;;;;;;4994908;28;20506;-79
2023/10/22 13:54:08;;;;;;;17.42;4.25;;;;;;;;;;5010478;28;20503;-79
2023/10/22 13:56:36;;;;;;;17.27;3.60;;;;;;;;;;5012780;28;20448;-80
2023/10/22 13:59:05;;;;;;;17.30;3.40;;;;;;;;;;5003160;28;20508;-80
2023/10/22 14:01:31;;;;;;;16.70;3.45;;;;;;;;;;5011982;28;20474;-79
2023/10/22 14:03:58;;;;;;;17.00;2.80;;;;;;;;;;4995613;28;20944;-80
2023/10/22 14:06:25;;;;;;;16.80;3.10;;;;;;;;;;4995345;28;20897;-80
2023/10/22 14:08:52;;;;;;;14.90;2.40;;;;;;;;;;5014217;28;20404;-77
2023/10/22 14:11:21;;;;;;;15.77;2.90;;;;;;;;;;4993932;28;20439;-78
2023/10/22 14:13:52;;;;;;;15.95;2.88;;;;;;;;;;5010224;28;20443;-80
2023/10/22 14:16:22;;;;;;;16.70;2.90;;;;;;;;;;4993022;28;20514;-78
2023/10/22 14:18:48;;;;;;;16.98;2.97;;;;;;;;;;5012284;28;20416;-79
2023/10/22 14:21:15;;;;;;;15.20;2.50;;;;;;;;;;4996816;28;20433;-80
2023/10/22 14:23:42;;;;;;;15.60;2.95;;;;;;;;;;4995376;28;20496;-78
2023/10/22 14:26:08;;;;;;;15.70;2.60;;;;;;;;;;5011902;28;20439;-78
2023/10/22 14:28:35;;;;;;;16.67;2.95;;;;;;;;;;5013934;28;20428;-80
2023/10/22 14:31:05;;;;;;;15.65;2.78;;;;;;;;;;5010013;28;20408;-81
2023/10/22 14:33:32;;;;;;;15.85;3.17;;;;;;;;;;4993147;28;20419;-83